Time;durP1;ratioP1;P1;durP2;ratioP2;P2;SDS_P1;SDS_P2;PMS_P1;PMS_P2;Temp;Humidity;BMP_temperature;BMP_pressure;BME280_temperature;BME280_humidity;BME280_pressure;Samples;Min_cycle;Max_cycle;Signal;HPM_P1;HPM_P2
2020/12/26 00:00:33;;;;;;;3.15;1.38;;;2.40;99.90;;;;;;5032609;28;20029;-59
2020/12/26 00:02:59;;;;;;;3.42;1.50;;;2.40;99.90;;;;;;5027780;28;20029;-58
2020/12/26 00:05:24;;;;;;;2.00;1.00;;;2.40;99.90;;;;;;5027729;28;20040;-58
2020/12/26 00:07:53;;;;;;;2.00;0.88;;;2.40;99.90;;;;;;5040016;28;20033;-58
2020/12/26 00:10:18;;;;;;;2.65;1.00;;;2.40;99.90;;;;;;5035865;28;20021;-58
2020/12/26 00:12:47;;;;;;;3.83;1.45;;;2.40;99.90;;;;;;5034420;28;20033;-61
2020/12/26 00:15:12;;;;;;;7.93;1.40;;;2.40;99.90;;;;;;5040615;28;20041;-59
2020/12/26 00:17:38;;;;;;;3.55;1.20;;;2.40;99.90;;;;;;5048556;28;20030;-59
2020/12/26 00:20:04;;;;;;;2.95;1.15;;;2.30;99.90;;;;;;5040399;28;20091;-57
2020/12/26 00:22:32;;;;;;;2.70;1.10;;;2.40;99.90;;;;;;5040455;28;20041;-58
2020/12/26 00:24:58;;;;;;;4.63;1.20;;;2.30;99.90;;;;;;5043068;28;20036;-58
2020/12/26 00:27:23;;;;;;;4.47;1.30;;;2.30;99.90;;;;;;5046561;28;20033;-58
2020/12/26 00:29:49;;;;;;;3.50;1.02;;;2.30;99.90;;;;;;5043177;28;20501;-58
2020/12/26 00:32:14;;;;;;;2.08;1.00;;;2.30;99.90;;;;;;5040911;28;20118;-57
2020/12/26 00:34:40;;;;;;;6.53;1.10;;;2.30;99.90;;;;;;5039184;28;20036;-58
2020/12/26 00:37:06;;;;;;;2.35;1.02;;;2.30;99.90;;;;;;5042186;28;20029;-58
2020/12/26 00:39:31;;;;;;;5.90;1.23;;;2.30;99.90;;;;;;5035587;28;20029;-58
2020/12/26 00:41:56;;;;;;;5.57;1.20;;;2.30;99.90;;;;;;5039879;28;20509;-58
2020/12/26 00:44:22;;;;;;;2.97;1.20;;;2.30;99.90;;;;;;5039684;28;20378;-58
2020/12/26 00:46:47;;;;;;;3.70;1.10;;;2.30;99.90;;;;;;5032292;28;20124;-58
2020/12/26 00:49:13;;;;;;;3.47;1.38;;;2.30;99.90;;;;;;5040288;28;20036;-58
2020/12/26 00:51:38;;;;;;;3.22;1.13;;;2.30;99.90;;;;;;5038539;28;20541;-58
2020/12/26 00:54:04;;;;;;;2.35;1.05;;;2.30;99.90;;;;;;5034358;28;20167;-58
2020/12/26 00:56:37;;;;;;;3.05;1.27;;;2.20;99.90;;;;;;5035968;28;20378;-58
2020/12/26 00:59:02;;;;;;;2.97;1.20;;;2.20;99.90;;;;;;5041297;28;20026;-58
2020/12/26 01:01:28;;;;;;;4.38;1.30;;;2.30;99.90;;;;;;5065515;28;20140;-59
2020/12/26 01:03:53;;;;;;;2.45;1.17;;;2.30;99.90;;;;;;5032778;28;20075;-59
2020/12/26 01:06:19;;;;;;;3.17;1.25;;;2.20;99.90;;;;;;5032393;28;20052;-58
2020/12/26 01:08:44;;;;;;;3.80;0.88;;;2.20;99.90;;;;;;5032570;28;20033;-57
2020/12/26 01:11:10;;;;;;;2.08;1.10;;;2.20;99.90;;;;;;5038405;28;20466;-59
2020/12/26 01:13:35;;;;;;;2.80;1.27;;;2.20;99.90;;;;;;5038072;28;20040;-58
2020/12/26 01:16:01;;;;;;;2.60;1.00;;;2.20;99.90;;;;;;5033832;28;20029;-58
2020/12/26 01:18:28;;;;;;;6.22;1.60;;;2.20;99.90;;;;;;5038609;28;20061;-58
2020/12/26 01:20:57;;;;;;;1.98;1.02;;;2.20;99.90;;;;;;5034278;28;20052;-58
2020/12/26 01:23:23;;;;;;;1.58;1.30;;;2.20;99.90;;;;;;5034647;28;20075;-58
2020/12/26 01:25:50;;;;;;;5.97;1.40;;;2.20;99.90;;;;;;5037851;28;20038;-58
2020/12/26 01:28:16;;;;;;;2.42;1.30;;;2.20;99.90;;;;;;5033453;28;20052;-58
2020/12/26 01:30:41;;;;;;;4.20;1.27;;;2.20;99.90;;;;;;5043735;28;20033;-58
2020/12/26 01:33:07;;;;;;;2.15;1.10;;;2.20;99.90;;;;;;5028375;28;20075;-58
2020/12/26 01:35:32;;;;;;;5.13;1.08;;;2.20;99.90;;;;;;5036522;28;20024;-56
2020/12/26 01:37:58;;;;;;;2.40;1.23;;;2.20;99.90;;;;;;5033226;28;20095;-58
2020/12/26 01:40:23;;;;;;;1.98;1.30;;;2.10;99.90;;;;;;5047506;28;20076;-58
2020/12/26 01:42:49;;;;;;;4.80;1.23;;;2.20;99.90;;;;;;5036206;28;20029;-59
2020/12/26 01:45:14;;;;;;;4.28;1.00;;;2.20;99.90;;;;;;5046855;28;20032;-58
2020/12/26 01:47:40;;;;;;;2.08;1.02;;;2.20;99.90;;;;;;5030192;28;20033;-58
2020/12/26 01:50:06;;;;;;;2.22;1.40;;;2.10;99.90;;;;;;5038184;28;20041;-58
2020/12/26 01:52:32;;;;;;;3.05;1.67;;;2.20;99.90;;;;;;5036178;28;20017;-58
2020/12/26 01:54:59;;;;;;;2.90;1.35;;;2.10;99.90;;;;;;5046458;28;20029;-58
2020/12/26 01:57:33;;;;;;;4.13;1.27;;;2.10;99.90;;;;;;5035022;28;20084;-58
2020/12/26 01:59:59;;;;;;;5.57;1.55;;;2.10;99.90;;;;;;5040370;28;20393;-58
2020/12/26 02:02:24;;;;;;;5.25;1.55;;;2.10;99.90;;;;;;5043338;28;20033;-58
2020/12/26 02:04:50;;;;;;;2.08;1.15;;;2.10;99.90;;;;;;5039692;28;20029;-58
2020/12/26 02:07:16;;;;;;;5.55;1.20;;;2.10;99.90;;;;;;5051755;28;20047;-58
2020/12/26 02:09:41;;;;;;;3.03;1.30;;;2.10;99.90;;;;;;5038670;28;20033;-59
2020/12/26 02:12:07;;;;;;;5.82;1.50;;;2.10;99.90;;;;;;5040529;28;20029;-58
2020/12/26 02:14:32;;;;;;;3.55;1.30;;;2.10;99.90;;;;;;5040172;28;20082;-56
2020/12/26 02:16:58;;;;;;;3.10;1.00;;;2.10;99.90;;;;;;5047000;28;20090;-58
2020/12/26 02:19:25;;;;;;;2.30;1.45;;;2.10;99.90;;;;;;5037645;28;20029;-58
2020/12/26 02:21:51;;;;;;;3.70;1.30;;;2.10;99.90;;;;;;5038980;28;20021;-58
2020/12/26 02:24:17;;;;;;;1.83;0.90;;;2.10;99.90;;;;;;5038237;28;20052;-58
2020/12/26 02:26:42;;;;;;;3.88;1.10;;;2.10;99.90;;;;;;5046442;28;20025;-58
2020/12/26 02:29:08;;;;;;;2.05;1.10;;;2.10;99.90;;;;;;5041101;28;20021;-58
2020/12/26 02:31:34;;;;;;;2.30;1.20;;;2.10;99.90;;;;;;5037503;28;20021;-58
2020/12/26 02:34:00;;;;;;;4.93;1.23;;;2.10;99.90;;;;;;5036960;28;20033;-58
2020/12/26 02:36:26;;;;;;;3.88;1.20;;;2.10;99.90;;;;;;5039524;28;20507;-58
2020/12/26 02:38:51;;;;;;;3.65;1.10;;;2.10;99.90;;;;;;5037330;28;20032;-55
2020/12/26 02:41:17;;;;;;;2.83;1.13;;;2.10;99.90;;;;;;5039745;28;20110;-59
2020/12/26 02:43:42;;;;;;;5.88;1.50;;;2.10;99.90;;;;;;5034265;28;20033;-56
2020/12/26 02:46:08;;;;;;;3.95;1.20;;;2.10;99.90;;;;;;5036596;28;20389;-58
2020/12/26 02:48:34;;;;;;;2.53;1.70;;;2.10;99.90;;;;;;5038412;28;20541;-58
2020/12/26 02:51:00;;;;;;;2.95;1.35;;;2.10;99.90;;;;;;5033091;28;20057;-59
2020/12/26 02:53:26;;;;;;;5.30;1.67;;;2.10;99.90;;;;;;5035922;28;20057;-58
2020/12/26 02:55:52;;;;;;;6.30;1.25;;;2.10;99.90;;;;;;5036980;28;20033;-56
2020/12/26 02:58:18;;;;;;;4.72;1.30;;;2.10;99.90;;;;;;5034951;28;20022;-58
2020/12/26 03:00:44;;;;;;;2.95;1.40;;;2.10;99.90;;;;;;5038655;28;20037;-58
2020/12/26 03:03:10;;;;;;;6.68;1.30;;;2.10;99.90;;;;;;5033714;28;20148;-57
2020/12/26 03:05:35;;;;;;;3.75;1.58;;;2.10;99.90;;;;;;5035964;28;20535;-57
2020/12/26 03:08:00;;;;;;;3.10;1.30;;;2.10;99.90;;;;;;5037469;28;20037;-58
2020/12/26 03:10:26;;;;;;;3.03;1.50;;;2.00;99.90;;;;;;5046018;28;20017;-58
2020/12/26 03:12:52;;;;;;;4.40;1.25;;;2.00;99.90;;;;;;5048244;28;20152;-57
2020/12/26 03:15:17;;;;;;;3.65;1.40;;;2.00;99.90;;;;;;5039327;28;20395;-58
2020/12/26 03:17:43;;;;;;;3.30;1.38;;;2.10;99.90;;;;;;5043212;28;20033;-58
2020/12/26 03:20:08;;;;;;;2.05;1.00;;;2.00;99.90;;;;;;5036606;28;20033;-56
2020/12/26 03:22:34;;;;;;;3.42;1.10;;;2.10;99.90;;;;;;5037846;28;20053;-58
2020/12/26 03:25:00;;;;;;;3.20;1.20;;;2.00;99.90;;;;;;5033342;28;20117;-58
2020/12/26 03:27:26;;;;;;;1.42;0.98;;;2.10;99.90;;;;;;5038608;28;20033;-56
2020/12/26 03:29:52;;;;;;;3.72;1.30;;;2.00;99.90;;;;;;5033099;28;20026;-57
2020/12/26 03:32:18;;;;;;;3.63;1.40;;;2.00;99.90;;;;;;5038177;28;20017;-56
2020/12/26 03:34:43;;;;;;;3.05;1.35;;;2.00;99.90;;;;;;5036565;28;20036;-58
2020/12/26 03:37:10;;;;;;;5.45;1.17;;;2.00;99.90;;;;;;5033169;28;20075;-58
2020/12/26 03:39:36;;;;;;;2.15;1.27;;;2.00;99.90;;;;;;5045546;28;20033;-57
2020/12/26 03:42:07;;;;;;;3.47;1.63;;;2.00;99.90;;;;;;5037159;28;20064;-56
2020/12/26 03:44:33;;;;;;;4.75;1.35;;;2.00;99.90;;;;;;5033222;28;20100;-58
2020/12/26 03:46:59;;;;;;;4.40;1.10;;;2.00;99.90;;;;;;5032481;28;20037;-58
2020/12/26 03:49:25;;;;;;;5.70;1.05;;;2.00;99.90;;;;;;5031772;28;20048;-57
2020/12/26 03:51:50;;;;;;;1.92;1.20;;;2.00;99.90;;;;;;5073564;28;20025;-58
2020/12/26 03:54:16;;;;;;;3.67;1.20;;;2.00;99.90;;;;;;5037077;28;20025;-57
2020/12/26 03:56:43;;;;;;;4.90;1.45;;;2.00;99.90;;;;;;5032887;28;20079;-58
2020/12/26 03:59:09;;;;;;;5.30;1.17;;;2.00;99.90;;;;;;5032416;28;20060;-57
2020/12/26 04:01:34;;;;;;;4.53;1.30;;;2.00;99.90;;;;;;5037484;28;20055;-55
2020/12/26 04:04:00;;;;;;;3.65;1.27;;;2.00;99.90;;;;;;5039026;28;20033;-59
2020/12/26 04:06:25;;;;;;;3.47;1.25;;;2.00;99.90;;;;;;5031351;28;20040;-58
2020/12/26 04:08:51;;;;;;;4.25;1.50;;;2.00;99.90;;;;;;5037813;28;20057;-58
2020/12/26 04:11:18;;;;;;;2.17;1.13;;;2.00;99.90;;;;;;5033954;28;20020;-54
2020/12/26 04:13:43;;;;;;;1.88;1.02;;;2.00;99.90;;;;;;5033299;28;20451;-58
2020/12/26 04:16:12;;;;;;;3.22;1.20;;;2.00;99.90;;;;;;5036664;28;20105;-58
2020/12/26 04:18:38;;;;;;;2.95;1.00;;;2.00;99.90;;;;;;5036355;28;20044;-58
2020/12/26 04:21:05;;;;;;;3.20;1.23;;;2.00;99.90;;;;;;5035318;28;20528;-58
2020/12/26 04:23:31;;;;;;;7.70;2.00;;;2.00;99.90;;;;;;5038358;28;20051;-58
2020/12/26 04:25:57;;;;;;;4.95;1.20;;;1.90;99.90;;;;;;5036075;28;20083;-57
2020/12/26 04:28:22;;;;;;;2.95;1.13;;;2.00;99.90;;;;;;5032062;28;20312;-58
2020/12/26 04:30:48;;;;;;;2.10;0.80;;;2.00;99.90;;;;;;5035547;28;20053;-57
2020/12/26 04:33:14;;;;;;;3.70;1.17;;;1.90;99.90;;;;;;5030621;28;20193;-58
2020/12/26 04:35:39;;;;;;;4.05;1.20;;;1.90;99.90;;;;;;5030724;28;20189;-58
2020/12/26 04:38:04;;;;;;;1.33;0.90;;;1.90;99.90;;;;;;5032073;28;20446;-57
2020/12/26 04:40:30;;;;;;;1.85;1.08;;;1.90;99.90;;;;;;5031837;28;20099;-55
2020/12/26 04:42:58;;;;;;;1.63;0.90;;;1.90;99.90;;;;;;5034376;28;20029;-58
2020/12/26 04:45:23;;;;;;;3.17;1.75;;;1.90;99.90;;;;;;5031849;28;20037;-57
2020/12/26 04:48:07;;;;;;;4.50;1.42;;;1.90;99.90;;;;;;5032146;28;20416;-58
2020/12/26 04:50:34;;;;;;;2.65;0.88;;;1.90;99.90;;;;;;5032198;28;20061;-56
2020/12/26 04:53:03;;;;;;;4.00;0.85;;;1.80;99.90;;;;;;5040664;28;20029;-58
2020/12/26 04:55:33;;;;;;;1.58;0.88;;;1.90;99.90;;;;;;5042299;28;20474;-57
2020/12/26 04:58:10;;;;;;;2.47;0.80;;;1.80;99.90;;;;;;5032819;28;20060;-57
2020/12/26 05:00:37;;;;;;;2.13;0.93;;;1.80;99.90;;;;;;5039511;28;20171;-57
2020/12/26 05:03:06;;;;;;;1.77;0.70;;;1.80;99.90;;;;;;5031695;28;20029;-55
2020/12/26 05:05:39;;;;;;;3.45;1.02;;;1.80;99.90;;;;;;5029842;28;20414;-57
2020/12/26 05:08:06;;;;;;;2.30;0.70;;;1.70;99.90;;;;;;5041585;28;20025;-58
2020/12/26 05:10:33;;;;;;;2.88;0.70;;;1.70;99.90;;;;;;5041168;28;20025;-58
2020/12/26 05:12:59;;;;;;;2.63;0.88;;;1.70;99.90;;;;;;5034988;28;20049;-58
2020/12/26 05:15:25;;;;;;;2.40;0.77;;;1.70;99.90;;;;;;5031609;28;20014;-58
2020/12/26 05:17:50;;;;;;;2.55;0.95;;;1.70;99.90;;;;;;5039001;28;20031;-56
2020/12/26 05:20:16;;;;;;;2.33;0.90;;;1.70;99.90;;;;;;5036468;28;20048;-57
2020/12/26 05:22:41;;;;;;;1.30;0.80;;;1.70;99.90;;;;;;5031477;28;20060;-56
2020/12/26 05:25:08;;;;;;;2.63;0.70;;;1.70;99.90;;;;;;5035281;28;20040;-58
2020/12/26 05:27:34;;;;;;;1.92;0.70;;;1.70;99.90;;;;;;5033783;28;20045;-58
2020/12/26 05:30:01;;;;;;;1.67;0.80;;;1.70;99.90;;;;;;5032083;28;20032;-58
2020/12/26 05:32:26;;;;;;;2.25;0.77;;;1.70;99.90;;;;;;5031741;28;20022;-57
2020/12/26 05:34:52;;;;;;;1.08;0.73;;;1.70;99.90;;;;;;5035440;28;20091;-58
2020/12/26 05:37:17;;;;;;;4.13;0.65;;;1.70;99.90;;;;;;5037196;28;20057;-58
2020/12/26 05:39:43;;;;;;;1.85;0.70;;;1.70;99.90;;;;;;5034354;28;20553;-57
2020/12/26 05:42:09;;;;;;;1.13;0.60;;;1.70;99.90;;;;;;5037311;28;20378;-57
2020/12/26 05:44:37;;;;;;;2.17;0.60;;;1.70;99.90;;;;;;5034824;28;20061;-57
2020/12/26 05:47:05;;;;;;;1.58;0.95;;;1.70;99.90;;;;;;5035450;28;20112;-58
2020/12/26 05:49:36;;;;;;;1.27;0.70;;;1.70;99.90;;;;;;5035750;28;20182;-57
2020/12/26 05:52:09;;;;;;;3.42;0.85;;;1.70;99.90;;;;;;5038913;28;20371;-56
2020/12/26 05:54:36;;;;;;;4.47;0.70;;;1.70;99.90;;;;;;5036298;28;20071;-57
2020/12/26 05:57:08;;;;;;;3.00;0.88;;;1.70;99.90;;;;;;5038025;28;20033;-58
2020/12/26 05:59:33;;;;;;;2.47;0.70;;;1.80;99.90;;;;;;5033326;28;20121;-58
2020/12/26 06:02:16;;;;;;;1.50;0.77;;;1.70;99.90;;;;;;5038964;28;20159;-56
2020/12/26 06:04:50;;;;;;;3.28;0.88;;;1.70;99.90;;;;;;5040751;28;20026;-58
2020/12/26 06:07:20;;;;;;;3.58;1.27;;;1.70;99.90;;;;;;5035058;28;20038;-56
2020/12/26 06:09:51;;;;;;;2.13;1.00;;;1.70;99.90;;;;;;5041343;28;20029;-58
2020/12/26 06:12:19;;;;;;;2.40;0.70;;;1.70;99.90;;;;;;5035168;28;20022;-56
2020/12/26 06:14:47;;;;;;;4.00;0.82;;;1.70;99.90;;;;;;5040224;28;20120;-58
2020/12/26 06:17:19;;;;;;;3.00;0.70;;;1.70;99.90;;;;;;5034561;28;20079;-58
2020/12/26 06:19:46;;;;;;;1.30;0.80;;;1.60;99.90;;;;;;5035832;28;20061;-58
2020/12/26 06:22:12;;;;;;;3.95;1.15;;;1.60;99.90;;;;;;5045087;28;20025;-58
2020/12/26 06:24:38;;;;;;;3.03;0.90;;;1.50;99.90;;;;;;5035553;28;20112;-58
2020/12/26 06:27:08;;;;;;;3.08;1.13;;;1.50;99.90;;;;;;5040159;28;20080;-58
2020/12/26 06:29:35;;;;;;;2.65;0.90;;;1.40;99.90;;;;;;5043980;28;20032;-58
2020/12/26 06:32:03;;;;;;;4.50;0.90;;;1.40;99.90;;;;;;5037955;28;20044;-54
2020/12/26 06:34:29;;;;;;;1.35;0.82;;;1.30;99.90;;;;;;5033616;28;20374;-58
2020/12/26 06:36:56;;;;;;;4.45;1.80;;;1.30;99.90;;;;;;5043058;28;20029;-55
2020/12/26 06:39:29;;;;;;;2.72;1.10;;;1.30;99.90;;;;;;5034635;28;20028;-57
2020/12/26 06:42:13;;;;;;;3.50;0.90;;;1.20;99.90;;;;;;5035172;28;20036;-58
2020/12/26 06:44:40;;;;;;;2.80;0.80;;;1.00;99.90;;;;;;5038651;28;20474;-54
2020/12/26 06:47:05;;;;;;;1.90;0.90;;;0.80;99.90;;;;;;5038368;28;20025;-56
2020/12/26 06:49:31;;;;;;;2.25;0.80;;;0.70;99.90;;;;;;5033293;28;20501;-56
2020/12/26 06:51:57;;;;;;;6.90;0.77;;;0.50;99.90;;;;;;5034409;28;20442;-56
2020/12/26 06:54:40;;;;;;;3.05;1.17;;;0.40;99.90;;;;;;5033501;28;20025;-55
2020/12/26 06:57:06;;;;;;;1.30;0.75;;;0.20;99.90;;;;;;5037882;28;20021;-56
2020/12/26 06:59:33;;;;;;;1.25;0.80;;;0.10;99.90;;;;;;5033511;28;20049;-54
2020/12/26 07:02:08;;;;;;;1.92;0.90;;;-0.10;99.90;;;;;;5040687;28;20021;-56
2020/12/26 07:04:39;;;;;;;4.53;1.20;;;-0.20;99.90;;;;;;5039127;28;20030;-54
2020/12/26 07:07:05;;;;;;;1.95;0.90;;;-0.30;99.90;;;;;;5039107;28;20089;-54
2020/12/26 07:09:36;;;;;;;5.07;1.40;;;-0.40;99.90;;;;;;5033771;28;20029;-57
2020/12/26 07:12:03;;;;;;;1.50;1.00;;;-0.50;99.90;;;;;;5037926;28;20025;-56
2020/12/26 07:14:33;;;;;;;5.30;1.20;;;-0.50;99.90;;;;;;5038668;28;20026;-54
2020/12/26 07:17:00;;;;;;;3.13;0.80;;;-0.50;99.90;;;;;;5036713;28;20037;-52
2020/12/26 07:19:31;;;;;;;5.43;1.10;;;-0.60;99.90;;;;;;5036209;28;20022;-57
2020/12/26 07:22:01;;;;;;;6.60;1.02;;;-0.50;99.90;;;;;;5033567;28;20029;-57
2020/12/26 07:24:34;;;;;;;5.60;1.30;;;-0.60;99.90;;;;;;5037658;28;20410;-54
2020/12/26 07:27:31;;;;;;;2.00;0.88;;;-0.60;99.90;;;;;;5034539;28;20021;-54
2020/12/26 07:30:12;;;;;;;2.75;1.13;;;-0.60;99.90;;;;;;5036887;28;20040;-55
2020/12/26 07:32:39;;;;;;;2.90;1.45;;;-0.50;99.90;;;;;;5035895;28;20041;-56
2020/12/26 07:35:23;;;;;;;3.85;1.38;;;-0.50;99.90;;;;;;5034264;28;20072;-54
2020/12/26 07:38:10;;;;;;;3.65;1.58;;;-0.50;99.90;;;;;;5035077;28;20068;-54
2020/12/26 07:40:38;;;;;;;2.83;1.27;;;-0.40;99.90;;;;;;5032718;28;20076;-56
2020/12/26 07:43:23;;;;;;;2.70;1.30;;;-0.30;99.90;;;;;;5037297;28;20029;-57
2020/12/26 07:45:54;;;;;;;3.00;1.60;;;-0.30;99.90;;;;;;5032976;28;20068;-57
2020/12/26 07:48:21;;;;;;;5.15;1.92;;;-0.20;99.90;;;;;;5033465;28;20056;-56
2020/12/26 07:50:48;;;;;;;4.28;2.03;;;-0.10;99.90;;;;;;5035785;28;20049;-54
2020/12/26 07:53:15;;;;;;;4.70;2.20;;;0.00;99.90;;;;;;5033046;28;20478;-57
2020/12/26 07:55:40;;;;;;;8.07;2.10;;;0.10;99.90;;;;;;5038504;28;20028;-55
2020/12/26 07:58:12;;;;;;;5.93;2.15;;;0.20;99.90;;;;;;5033535;28;20036;-54
2020/12/26 08:00:42;;;;;;;4.95;2.47;;;0.30;99.90;;;;;;5039012;28;20026;-58
2020/12/26 08:03:10;;;;;;;5.10;2.25;;;0.40;99.90;;;;;;5037653;28;20060;-57
2020/12/26 08:05:37;;;;;;;3.78;2.15;;;0.50;99.90;;;;;;5031417;28;20053;-55
2020/12/26 08:08:13;;;;;;;6.55;2.63;;;0.50;99.90;;;;;;5039701;28;20026;-55
2020/12/26 08:10:38;;;;;;;7.32;2.70;;;0.70;99.90;;;;;;5033843;28;20033;-57
2020/12/26 08:13:04;;;;;;;8.07;3.30;;;0.70;99.90;;;;;;5039272;28;20029;-57
2020/12/26 08:15:30;;;;;;;7.72;3.75;;;0.80;99.90;;;;;;5041813;28;20025;-56
2020/12/26 08:18:01;;;;;;;9.20;4.00;;;0.90;99.90;;;;;;5042758;28;20042;-54
2020/12/26 08:20:29;;;;;;;8.95;3.70;;;1.00;99.90;;;;;;5034023;28;20025;-56
2020/12/26 08:22:55;;;;;;;7.32;4.05;;;1.00;99.90;;;;;;5043925;28;20083;-57
2020/12/26 08:25:26;;;;;;;7.85;4.40;;;1.10;99.90;;;;;;5036356;28;20418;-52
2020/12/26 08:27:52;;;;;;;8.13;4.40;;;1.10;99.90;;;;;;5032354;28;20030;-57
2020/12/26 08:30:29;;;;;;;7.38;3.97;;;1.10;99.90;;;;;;5043512;28;20033;-55
2020/12/26 08:33:19;;;;;;;10.02;5.05;;;1.10;99.90;;;;;;5035996;28;20063;-57
2020/12/26 08:36:08;;;;;;;12.10;6.03;;;1.20;99.90;;;;;;5036556;28;20382;-56
2020/12/26 08:38:41;;;;;;;8.90;5.43;;;1.20;99.90;;;;;;5031358;28;20048;-56
2020/12/26 08:41:10;;;;;;;10.63;5.45;;;1.10;99.90;;;;;;5036722;28;20048;-57
2020/12/26 08:43:37;;;;;;;9.55;4.90;;;1.20;99.90;;;;;;5032246;28;20026;-56
2020/12/26 08:46:15;;;;;;;9.50;5.13;;;1.20;99.90;;;;;;5031590;28;20379;-55
2020/12/26 08:48:41;;;;;;;12.25;5.65;;;1.20;99.90;;;;;;5031746;28;20410;-58
2020/12/26 08:51:20;;;;;;;11.63;5.90;;;1.20;99.90;;;;;;5030053;28;20033;-55
2020/12/26 08:53:46;;;;;;;11.35;5.28;;;1.20;99.90;;;;;;5038076;28;20033;-56
2020/12/26 08:56:14;;;;;;;8.73;5.00;;;1.20;99.90;;;;;;5035266;28;20037;-56
2020/12/26 08:58:47;;;;;;;10.93;5.70;;;1.30;99.90;;;;;;5034751;28;20029;-54
2020/12/26 09:01:13;;;;;;;10.85;5.78;;;1.20;99.90;;;;;;5042297;28;20059;-54
2020/12/26 09:03:38;;;;;;;14.43;6.32;;;1.20;99.90;;;;;;5031509;28;20557;-55
2020/12/26 09:06:04;;;;;;;10.50;5.32;;;1.20;99.90;;;;;;5037574;28;20156;-58
2020/12/26 09:08:30;;;;;;;14.15;6.22;;;1.20;99.90;;;;;;5050241;28;20033;-51
2020/12/26 09:11:08;;;;;;;12.23;5.80;;;1.20;99.90;;;;;;5032311;28;20492;-55
2020/12/26 09:13:44;;;;;;;9.82;4.90;;;1.30;99.90;;;;;;5036786;28;20095;-54
2020/12/26 09:16:13;;;;;;;13.15;7.18;;;1.30;99.90;;;;;;5037623;28;20032;-56
2020/12/26 09:18:43;;;;;;;13.27;6.65;;;1.30;99.90;;;;;;5034675;28;20029;-56
2020/12/26 09:21:22;;;;;;;18.38;7.63;;;1.40;99.90;;;;;;5032139;28;20021;-52
2020/12/26 09:23:49;;;;;;;15.50;6.57;;;1.40;99.90;;;;;;5041023;28;20049;-53
2020/12/26 09:26:19;;;;;;;13.27;6.50;;;1.40;99.90;;;;;;5040012;28;20044;-52
2020/12/26 09:28:58;;;;;;;11.88;6.00;;;1.40;99.90;;;;;;5046044;28;20109;-54
2020/12/26 09:31:26;;;;;;;17.52;7.22;;;1.50;99.90;;;;;;5035241;28;20107;-56
2020/12/26 09:33:56;;;;;;;14.68;6.60;;;1.60;99.90;;;;;;5034133;28;20026;-57
2020/12/26 09:36:26;;;;;;;15.63;7.28;;;1.60;99.90;;;;;;5039988;28;20393;-57
2020/12/26 09:38:53;;;;;;;14.77;6.82;;;1.70;99.90;;;;;;5037774;28;20068;-53
2020/12/26 09:41:25;;;;;;;17.02;7.15;;;1.70;99.90;;;;;;5040813;28;20025;-54
2020/12/26 09:43:52;;;;;;;14.60;7.57;;;1.70;99.90;;;;;;5048659;28;20021;-57
2020/12/26 09:46:19;;;;;;;25.77;10.75;;;1.70;99.90;;;;;;5039309;28;20052;-58
2020/12/26 09:48:45;;;;;;;14.77;7.05;;;1.70;99.90;;;;;;5043424;28;20044;-56
2020/12/26 09:51:20;;;;;;;19.98;9.60;;;1.70;99.90;;;;;;5042768;28;20041;-56
2020/12/26 09:53:46;;;;;;;13.48;7.18;;;1.70;99.90;;;;;;5049839;28;20045;-58
2020/12/26 09:56:12;;;;;;;17.10;8.07;;;1.80;99.90;;;;;;5045616;28;20446;-56
2020/12/26 09:58:40;;;;;;;16.88;7.22;;;1.80;99.90;;;;;;5039475;28;20100;-58
2020/12/26 10:01:06;;;;;;;15.82;7.75;;;1.80;99.90;;;;;;5039882;28;20074;-55
2020/12/26 10:03:33;;;;;;;13.90;7.03;;;1.90;99.90;;;;;;5038838;28;20028;-58
2020/12/26 10:05:58;;;;;;;15.40;7.72;;;1.90;99.90;;;;;;5072775;28;20020;-56
2020/12/26 10:08:24;;;;;;;17.60;7.40;;;2.00;99.90;;;;;;5044030;28;20047;-57
2020/12/26 10:10:49;;;;;;;18.52;8.00;;;2.00;99.90;;;;;;5037099;28;20498;-58
2020/12/26 10:13:15;;;;;;;15.43;8.07;;;2.10;99.90;;;;;;5037571;28;20315;-58
2020/12/26 10:15:40;;;;;;;15.60;7.28;;;2.10;99.90;;;;;;5033516;28;20040;-58
2020/12/26 10:18:06;;;;;;;15.60;7.55;;;2.20;99.90;;;;;;5039497;28;20041;-58
2020/12/26 10:20:32;;;;;;;14.25;7.22;;;2.20;99.90;;;;;;5032343;28;20057;-58
2020/12/26 10:22:57;;;;;;;15.48;7.63;;;2.30;99.90;;;;;;5038561;28;20029;-57
2020/12/26 10:25:26;;;;;;;18.13;8.88;;;2.30;99.90;;;;;;5038142;28;20086;-59
2020/12/26 10:27:54;;;;;;;18.00;9.40;;;2.30;99.90;;;;;;5038713;28;20045;-58
2020/12/26 10:30:20;;;;;;;12.95;7.70;;;2.40;99.90;;;;;;5036644;28;20021;-55
2020/12/26 10:32:46;;;;;;;15.15;7.50;;;2.50;99.90;;;;;;5034444;28;20442;-57
2020/12/26 10:35:12;;;;;;;15.85;9.05;;;2.50;99.90;;;;;;5041232;28;20032;-51
2020/12/26 10:37:38;;;;;;;16.85;7.65;;;2.60;99.90;;;;;;5037523;28;20082;-56
2020/12/26 10:40:04;;;;;;;13.48;7.20;;;2.60;99.90;;;;;;5048812;28;20467;-57
2020/12/26 10:42:30;;;;;;;17.05;8.35;;;2.70;99.90;;;;;;5041853;28;20021;-59
2020/12/26 10:44:55;;;;;;;13.90;7.22;;;2.70;99.90;;;;;;5042162;28;20105;-56
2020/12/26 10:47:21;;;;;;;16.23;7.88;;;2.80;99.90;;;;;;5040698;28;20029;-58
2020/12/26 10:49:46;;;;;;;14.45;7.15;;;2.80;99.90;;;;;;5041573;28;20141;-59
2020/12/26 10:52:12;;;;;;;18.10;8.00;;;2.80;99.90;;;;;;5043404;28;20034;-56
2020/12/26 10:54:37;;;;;;;13.85;6.80;;;2.90;99.90;;;;;;5045196;28;20021;-58
2020/12/26 10:57:03;;;;;;;12.38;7.53;;;2.90;99.90;;;;;;5044289;28;20513;-55
2020/12/26 10:59:28;;;;;;;14.25;7.60;;;2.90;99.90;;;;;;5042150;28;20035;-58
2020/12/26 11:01:54;;;;;;;16.50;7.65;;;2.90;99.90;;;;;;5045357;28;20387;-57
2020/12/26 11:04:19;;;;;;;16.60;7.93;;;2.90;99.90;;;;;;5037541;28;20104;-57
2020/12/26 11:06:49;;;;;;;15.52;8.23;;;3.00;99.90;;;;;;5040812;28;20469;-54
2020/12/26 11:09:16;;;;;;;13.65;8.48;;;3.00;99.90;;;;;;5035497;28;20389;-53
2020/12/26 11:11:46;;;;;;;18.13;8.18;;;3.00;99.90;;;;;;5050657;28;20097;-55
2020/12/26 11:14:11;;;;;;;14.02;7.28;;;3.10;99.90;;;;;;5040028;28;20040;-53
2020/12/26 11:16:37;;;;;;;14.77;8.23;;;3.10;99.90;;;;;;5038636;28;20490;-56
2020/12/26 11:19:02;;;;;;;11.85;5.97;;;3.10;99.90;;;;;;5035323;28;20045;-58
2020/12/26 11:21:27;;;;;;;11.48;6.22;;;3.10;99.90;;;;;;5039460;28;21038;-54
2020/12/26 11:23:53;;;;;;;12.82;7.45;;;3.10;99.90;;;;;;5037624;28;20033;-53
2020/12/26 11:26:18;;;;;;;11.88;5.97;;;3.10;99.90;;;;;;5041728;28;20045;-56
2020/12/26 11:28:44;;;;;;;12.88;6.63;;;3.10;99.90;;;;;;5034839;28;20367;-55
2020/12/26 11:31:09;;;;;;;17.13;7.47;;;3.10;99.90;;;;;;5038780;28;20041;-53
2020/12/26 11:33:35;;;;;;;13.85;6.50;;;3.10;99.90;;;;;;5039881;28;20043;-57
2020/12/26 11:36:00;;;;;;;11.32;6.07;;;3.10;99.90;;;;;;5032205;28;20112;-55
2020/12/26 11:38:26;;;;;;;13.57;6.65;;;3.20;99.90;;;;;;5041884;28;20017;-54
2020/12/26 11:40:51;;;;;;;21.48;10.10;;;3.20;99.90;;;;;;5035288;28;20052;-58
2020/12/26 11:43:17;;;;;;;13.98;7.07;;;3.30;99.90;;;;;;5037762;28;20370;-55
2020/12/26 11:45:42;;;;;;;21.40;8.77;;;3.30;99.90;;;;;;5033460;28;20026;-55
2020/12/26 11:48:08;;;;;;;11.32;6.57;;;3.20;99.90;;;;;;5030558;28;20044;-53
2020/12/26 11:50:33;;;;;;;11.73;6.50;;;3.20;99.90;;;;;;5033523;28;20053;-58
2020/12/26 11:52:59;;;;;;;13.15;7.25;;;3.20;99.90;;;;;;5038064;28;20044;-53
2020/12/26 11:55:24;;;;;;;11.35;5.30;;;3.20;99.90;;;;;;5035094;28;20033;-55
2020/12/26 11:57:50;;;;;;;10.63;5.40;;;3.30;99.90;;;;;;5030437;28;20112;-53
2020/12/26 12:00:16;;;;;;;10.80;5.50;;;3.20;99.90;;;;;;5033367;28;20060;-58
2020/12/26 12:02:42;;;;;;;12.27;5.85;;;3.30;99.90;;;;;;5042158;28;20041;-55
2020/12/26 12:05:08;;;;;;;8.82;5.30;;;3.40;99.90;;;;;;5047022;28;20025;-56
2020/12/26 12:07:34;;;;;;;15.15;6.15;;;3.30;99.90;;;;;;5040418;28;20020;-56
2020/12/26 12:09:59;;;;;;;12.18;6.65;;;3.30;99.90;;;;;;5046259;28;20033;-55
2020/12/26 12:12:26;;;;;;;13.45;6.78;;;3.30;99.90;;;;;;5036816;28;20440;-55
2020/12/26 12:14:52;;;;;;;13.38;6.10;;;3.20;99.90;;;;;;5039196;28;20040;-56
2020/12/26 12:17:17;;;;;;;11.60;6.25;;;3.10;99.90;;;;;;5044678;28;20035;-55
2020/12/26 12:19:43;;;;;;;14.98;7.13;;;3.10;99.90;;;;;;5043748;28;20036;-58
2020/12/26 12:22:08;;;;;;;12.98;6.53;;;3.00;99.90;;;;;;5035151;28;20490;-58
2020/12/26 12:24:33;;;;;;;16.75;8.68;;;3.00;99.90;;;;;;5041687;28;20072;-55
2020/12/26 12:26:59;;;;;;;13.38;6.95;;;3.00;99.90;;;;;;5043407;28;20033;-56
2020/12/26 12:29:24;;;;;;;9.77;5.93;;;3.00;99.90;;;;;;5038413;28;20060;-54
2020/12/26 12:31:50;;;;;;;16.85;8.50;;;3.00;99.90;;;;;;5040591;28;20040;-55
2020/12/26 12:34:15;;;;;;;18.27;7.18;;;3.00;99.90;;;;;;5037373;28;20044;-56
2020/12/26 12:36:41;;;;;;;15.95;8.43;;;3.00;99.90;;;;;;5038261;28;20043;-54
2020/12/26 12:39:08;;;;;;;14.57;7.22;;;2.90;99.90;;;;;;5044598;28;20024;-57
2020/12/26 12:41:34;;;;;;;30.80;8.25;;;2.90;99.90;;;;;;5043590;28;20029;-54
2020/12/26 12:43:59;;;;;;;13.63;5.38;;;2.80;99.90;;;;;;5045288;28;20044;-55
2020/12/26 12:46:25;;;;;;;11.75;6.82;;;2.80;99.90;;;;;;5038925;28;20033;-55
2020/12/26 12:48:50;;;;;;;11.63;6.15;;;2.80;99.90;;;;;;5035197;28;20041;-56
2020/12/26 12:51:15;;;;;;;8.82;4.82;;;2.80;99.90;;;;;;5041147;28;20041;-55
2020/12/26 12:53:41;;;;;;;11.57;7.30;;;2.90;99.90;;;;;;5039457;28;20078;-53